sensor_id;sensor_type;location;lat;lon;timestamp;temperature;humidity
41664;DHT22;27353;50.906;7.248;2022-09-23T00:00:02;10.50;99.90
41664;DHT22;27353;50.906;7.248;2022-09-23T00:02:27;10.50;99.90
41664;DHT22;27353;50.906;7.248;2022-09-23T00:04:53;10.50;99.90
41664;DHT22;27353;50.906;7.248;2022-09-23T00:07:18;10.50;99.90
41664;DHT22;27353;50.906;7.248;2022-09-23T00:09:45;10.50;99.90
41664;DHT22;27353;50.906;7.248;2022-09-23T00:12:11;10.40;99.90
41664;DHT22;27353;50.906;7.248;2022-09-23T00:14:38;10.40;99.90
41664;DHT22;27353;50.906;7.248;2022-09-23T00:17:03;10.40;99.90
41664;DHT22;27353;50.906;7.248;2022-09-23T00:19:29;10.40;99.90
41664;DHT22;27353;50.906;7.248;2022-09-23T00:21:54;10.50;99.90
41664;DHT22;27353;50.906;7.248;2022-09-23T00:24:21;10.50;99.90
41664;DHT22;27353;50.906;7.248;2022-09-23T00:26:47;10.40;99.90
41664;DHT22;27353;50.906;7.248;2022-09-23T00:29:12;10.40;99.90
41664;DHT22;27353;50.906;7.248;2022-09-23T00:31:40;10.40;99.90
41664;DHT22;27353;50.906;7.248;2022-09-23T00:34:08;10.40;99.90
41664;DHT22;27353;50.906;7.248;2022-09-23T00:36:35;10.40;99.90
41664;DHT22;27353;50.906;7.248;2022-09-23T00:39:00;10.50;99.90
41664;DHT22;27353;50.906;7.248;2022-09-23T00:41:29;10.50;99.90
41664;DHT22;27353;50.906;7.248;2022-09-23T00:43:57;10.50;99.90
41664;DHT22;27353;50.906;7.248;2022-09-23T00:46:27;10.50;99.90
41664;DHT22;27353;50.906;7.248;2022-09-23T00:49:14;10.50;99.90
41664;DHT22;27353;50.906;7.248;2022-09-23T00:51:57;10.50;99.90
41664;DHT22;27353;50.906;7.248;2022-09-23T00:54:25;10.50;99.90
41664;DHT22;27353;50.906;7.248;2022-09-23T00:56:52;10.40;99.90
41664;DHT22;27353;50.906;7.248;2022-09-23T00:59:18;10.40;99.90
41664;DHT22;27353;50.906;7.248;2022-09-23T01:01:46;10.40;99.90
41664;DHT22;27353;50.906;7.248;2022-09-23T01:04:14;10.40;99.90
41664;DHT22;27353;50.906;7.248;2022-09-23T01:06:40;10.40;99.90
41664;DHT22;27353;50.906;7.248;2022-09-23T01:09:06;10.40;99.90
41664;DHT22;27353;50.906;7.248;2022-09-23T01:14:49;10.40;99.90
41664;DHT22;27353;50.906;7.248;2022-09-23T01:31:33;10.40;99.90
41664;DHT22;27353;50.906;7.248;2022-09-23T01:34:11;10.50;99.90
41664;DHT22;27353;50.906;7.248;2022-09-23T01:36:42;10.40;99.90
41664;DHT22;27353;50.906;7.248;2022-09-23T01:39:21;10.40;99.90
41664;DHT22;27353;50.906;7.248;2022-09-23T01:42:04;10.40;99.90
41664;DHT22;27353;50.906;7.248;2022-09-23T01:49:51;10.50;99.90
41664;DHT22;27353;50.906;7.248;2022-09-23T01:52:35;10.40;99.90
41664;DHT22;27353;50.906;7.248;2022-09-23T01:55:07;10.40;99.90
41664;DHT22;27353;50.906;7.248;2022-09-23T01:57:38;10.40;99.90
41664;DHT22;27353;50.906;7.248;2022-09-23T02:00:12;10.40;99.90
41664;DHT22;27353;50.906;7.248;2022-09-23T02:02:53;10.30;99.90
41664;DHT22;27353;50.906;7.248;2022-09-23T02:05:28;10.40;99.90
41664;DHT22;27353;50.906;7.248;2022-09-23T02:08:10;10.30;99.90
41664;DHT22;27353;50.906;7.248;2022-09-23T02:11:05;10.30;99.90
41664;DHT22;27353;50.906;7.248;2022-09-23T02:14:01;10.30;99.90
41664;DHT22;27353;50.906;7.248;2022-09-23T02:16:40;10.30;99.90
41664;DHT22;27353;50.906;7.248;2022-09-23T02:22:07;10.20;99.90
41664;DHT22;27353;50.906;7.248;2022-09-23T02:24:36;10.10;99.90
41664;DHT22;27353;50.906;7.248;2022-09-23T02:27:28;10.10;99.90
41664;DHT22;27353;50.906;7.248;2022-09-23T02:30:11;10.10;99.90
41664;DHT22;27353;50.906;7.248;2022-09-23T02:33:03;10.00;99.90
41664;DHT22;27353;50.906;7.248;2022-09-23T02:35:59;10.00;99.90
41664;DHT22;27353;50.906;7.248;2022-09-23T02:38:47;10.00;99.90
41664;DHT22;27353;50.906;7.248;2022-09-23T02:41:42;10.00;99.90
41664;DHT22;27353;50.906;7.248;2022-09-23T02:44:15;10.00;99.90
41664;DHT22;27353;50.906;7.248;2022-09-23T02:46:43;10.00;99.90
41664;DHT22;27353;50.906;7.248;2022-09-23T02:49:15;9.90;99.90
41664;DHT22;27353;50.906;7.248;2022-09-23T02:51:41;10.00;99.90
41664;DHT22;27353;50.906;7.248;2022-09-23T02:54:10;10.00;99.90
41664;DHT22;27353;50.906;7.248;2022-09-23T02:56:39;9.90;99.90
41664;DHT22;27353;50.906;7.248;2022-09-23T02:59:05;9.80;99.90
41664;DHT22;27353;50.906;7.248;2022-09-23T03:01:45;9.80;99.90
41664;DHT22;27353;50.906;7.248;2022-09-23T03:04:23;9.80;99.90
41664;DHT22;27353;50.906;7.248;2022-09-23T03:07:12;9.80;99.90
41664;DHT22;27353;50.906;7.248;2022-09-23T03:12:39;9.80;99.90
41664;DHT22;27353;50.906;7.248;2022-09-23T03:17:59;9.70;99.90
41664;DHT22;27353;50.906;7.248;2022-09-23T03:20:33;9.70;99.90
41664;DHT22;27353;50.906;7.248;2022-09-23T03:23:04;9.70;99.90
41664;DHT22;27353;50.906;7.248;2022-09-23T03:25:35;9.70;99.90
41664;DHT22;27353;50.906;7.248;2022-09-23T03:28:02;9.70;99.90
41664;DHT22;27353;50.906;7.248;2022-09-23T03:30:30;9.70;99.90
41664;DHT22;27353;50.906;7.248;2022-09-23T03:33:02;9.60;99.90
41664;DHT22;27353;50.906;7.248;2022-09-23T03:35:31;9.60;99.90
41664;DHT22;27353;50.906;7.248;2022-09-23T03:38:19;9.60;99.90
41664;DHT22;27353;50.906;7.248;2022-09-23T03:40:49;9.60;99.90
41664;DHT22;27353;50.906;7.248;2022-09-23T03:43:16;9.60;99.90
41664;DHT22;27353;50.906;7.248;2022-09-23T03:45:41;9.50;99.90
41664;DHT22;27353;50.906;7.248;2022-09-23T03:48:07;9.60;99.90
41664;DHT22;27353;50.906;7.248;2022-09-23T03:50:33;9.60;99.90
41664;DHT22;27353;50.906;7.248;2022-09-23T03:53:00;9.60;99.90
41664;DHT22;27353;50.906;7.248;2022-09-23T03:55:26;9.60;99.90
41664;DHT22;27353;50.906;7.248;2022-09-23T03:57:52;9.60;99.90
41664;DHT22;27353;50.906;7.248;2022-09-23T04:00:17;9.60;99.90
41664;DHT22;27353;50.906;7.248;2022-09-23T04:02:43;9.50;99.90
41664;DHT22;27353;50.906;7.248;2022-09-23T04:05:11;9.50;99.90
41664;DHT22;27353;50.906;7.248;2022-09-23T04:07:36;9.50;99.90
41664;DHT22;27353;50.906;7.248;2022-09-23T04:10:03;9.40;99.90
41664;DHT22;27353;50.906;7.248;2022-09-23T04:12:29;9.40;99.90
41664;DHT22;27353;50.906;7.248;2022-09-23T04:14:54;9.50;99.90
41664;DHT22;27353;50.906;7.248;2022-09-23T04:17:20;9.50;99.90
41664;DHT22;27353;50.906;7.248;2022-09-23T04:19:46;9.40;99.90
41664;DHT22;27353;50.906;7.248;2022-09-23T04:22:11;9.50;99.90
41664;DHT22;27353;50.906;7.248;2022-09-23T04:24:37;9.40;99.90
41664;DHT22;27353;50.906;7.248;2022-09-23T04:27:02;9.40;99.90
41664;DHT22;27353;50.906;7.248;2022-09-23T04:29:28;9.50;99.90
41664;DHT22;27353;50.906;7.248;2022-09-23T04:31:54;9.40;99.90
41664;DHT22;27353;50.906;7.248;2022-09-23T04:34:20;9.40;99.90
41664;DHT22;27353;50.906;7.248;2022-09-23T04:36:46;9.30;99.90
41664;DHT22;27353;50.906;7.248;2022-09-23T04:39:13;9.30;99.90
41664;DHT22;27353;50.906;7.248;2022-09-23T04:41:40;9.30;99.90
41664;DHT22;27353;50.906;7.248;2022-09-23T04:44:06;9.30;99.90
41664;DHT22;27353;50.906;7.248;2022-09-23T04:46:32;9.30;99.90
41664;DHT22;27353;50.906;7.248;2022-09-23T04:48:57;9.20;99.90
41664;DHT22;27353;50.906;7.248;2022-09-23T04:51:25;9.20;99.90
41664;DHT22;27353;50.906;7.248;2022-09-23T04:53:51;9.20;99.90
41664;DHT22;27353;50.906;7.248;2022-09-23T04:56:26;9.10;99.90
41664;DHT22;27353;50.906;7.248;2022-09-23T04:58:52;9.10;99.90
41664;DHT22;27353;50.906;7.248;2022-09-23T05:01:26;9.10;99.90
41664;DHT22;27353;50.906;7.248;2022-09-23T05:03:57;9.10;99.90
41664;DHT22;27353;50.906;7.248;2022-09-23T05:06:25;9.10;99.90
41664;DHT22;27353;50.906;7.248;2022-09-23T05:08:52;9.00;99.90
41664;DHT22;27353;50.906;7.248;2022-09-23T05:11:18;9.00;99.90
41664;DHT22;27353;50.906;7.248;2022-09-23T05:13:46;8.90;99.90
41664;DHT22;27353;50.906;7.248;2022-09-23T05:16:12;8.90;99.90
41664;DHT22;27353;50.906;7.248;2022-09-23T05:18:40;8.90;99.90
41664;DHT22;27353;50.906;7.248;2022-09-23T05:21:28;8.90;99.90
41664;DHT22;27353;50.906;7.248;2022-09-23T05:23:55;8.90;99.90
41664;DHT22;27353;50.906;7.248;2022-09-23T05:26:28;8.90;99.90
41664;DHT22;27353;50.906;7.248;2022-09-23T05:28:54;9.00;99.90
41664;DHT22;27353;50.906;7.248;2022-09-23T05:31:22;9.00;99.90
41664;DHT22;27353;50.906;7.248;2022-09-23T05:33:54;9.10;99.90
41664;DHT22;27353;50.906;7.248;2022-09-23T05:36:22;9.20;99.90
41664;DHT22;27353;50.906;7.248;2022-09-23T05:38:49;9.20;99.90
41664;DHT22;27353;50.906;7.248;2022-09-23T05:41:15;9.20;99.90
41664;DHT22;27353;50.906;7.248;2022-09-23T05:43:42;9.20;99.90
41664;DHT22;27353;50.906;7.248;2022-09-23T05:48:37;9.20;99.90
41664;DHT22;27353;50.906;7.248;2022-09-23T05:51:04;9.30;99.90
41664;DHT22;27353;50.906;7.248;2022-09-23T05:53:31;9.40;99.90
41664;DHT22;27353;50.906;7.248;2022-09-23T05:55:57;9.40;99.90
41664;DHT22;27353;50.906;7.248;2022-09-23T05:58:23;9.40;99.90
41664;DHT22;27353;50.906;7.248;2022-09-23T06:00:50;9.30;99.90
41664;DHT22;27353;50.906;7.248;2022-09-23T06:03:17;9.40;99.90
41664;DHT22;27353;50.906;7.248;2022-09-23T06:05:43;9.50;99.90
41664;DHT22;27353;50.906;7.248;2022-09-23T06:08:09;9.60;99.90
41664;DHT22;27353;50.906;7.248;2022-09-23T06:10:40;9.70;99.90
41664;DHT22;27353;50.906;7.248;2022-09-23T06:13:06;9.70;99.90
41664;DHT22;27353;50.906;7.248;2022-09-23T06:15:33;9.80;99.90
41664;DHT22;27353;50.906;7.248;2022-09-23T06:17:59;9.90;99.90
41664;DHT22;27353;50.906;7.248;2022-09-23T06:20:25;10.00;99.90
41664;DHT22;27353;50.906;7.248;2022-09-23T06:22:51;10.20;99.90
41664;DHT22;27353;50.906;7.248;2022-09-23T06:25:16;10.20;99.90
41664;DHT22;27353;50.906;7.248;2022-09-23T06:27:53;10.40;99.90
41664;DHT22;27353;50.906;7.248;2022-09-23T06:30:20;10.40;99.90
41664;DHT22;27353;50.906;7.248;2022-09-23T06:32:49;10.50;99.90
41664;DHT22;27353;50.906;7.248;2022-09-23T06:35:20;10.50;99.90
41664;DHT22;27353;50.906;7.248;2022-09-23T06:37:46;10.70;99.90
41664;DHT22;27353;50.906;7.248;2022-09-23T06:40:12;10.70;99.90
41664;DHT22;27353;50.906;7.248;2022-09-23T06:42:39;10.70;99.90
41664;DHT22;27353;50.906;7.248;2022-09-23T06:45:06;10.70;99.90
41664;DHT22;27353;50.906;7.248;2022-09-23T06:47:31;10.90;99.90
41664;DHT22;27353;50.906;7.248;2022-09-23T06:49:57;11.00;99.90
41664;DHT22;27353;50.906;7.248;2022-09-23T06:52:23;11.10;99.90
41664;DHT22;27353;50.906;7.248;2022-09-23T06:54:49;11.10;99.90
41664;DHT22;27353;50.906;7.248;2022-09-23T06:57:15;11.20;99.90
41664;DHT22;27353;50.906;7.248;2022-09-23T06:59:41;11.30;99.90
41664;DHT22;27353;50.906;7.248;2022-09-23T07:02:08;11.40;99.90
41664;DHT22;27353;50.906;7.248;2022-09-23T07:04:34;11.50;99.90
41664;DHT22;27353;50.906;7.248;2022-09-23T07:06:59;11.60;99.90
41664;DHT22;27353;50.906;7.248;2022-09-23T07:09:25;11.60;99.90
41664;DHT22;27353;50.906;7.248;2022-09-23T07:11:52;11.60;99.90
41664;DHT22;27353;50.906;7.248;2022-09-23T07:14:17;11.70;99.90
41664;DHT22;27353;50.906;7.248;2022-09-23T07:16:43;11.70;99.90
41664;DHT22;27353;50.906;7.248;2022-09-23T07:19:08;11.80;99.90
41664;DHT22;27353;50.906;7.248;2022-09-23T07:21:35;11.80;99.90
41664;DHT22;27353;50.906;7.248;2022-09-23T07:24:01;12.00;99.90
41664;DHT22;27353;50.906;7.248;2022-09-23T07:26:26;12.10;99.90
41664;DHT22;27353;50.906;7.248;2022-09-23T07:28:54;12.20;99.90
41664;DHT22;27353;50.906;7.248;2022-09-23T07:31:21;12.40;99.90
41664;DHT22;27353;50.906;7.248;2022-09-23T07:33:47;12.40;99.90
41664;DHT22;27353;50.906;7.248;2022-09-23T07:36:16;12.50;99.90
41664;DHT22;27353;50.906;7.248;2022-09-23T07:38:43;12.60;99.90
41664;DHT22;27353;50.906;7.248;2022-09-23T07:41:10;12.70;99.90
41664;DHT22;27353;50.906;7.248;2022-09-23T07:43:37;13.10;99.90
41664;DHT22;27353;50.906;7.248;2022-09-23T07:46:07;13.80;99.90
41664;DHT22;27353;50.906;7.248;2022-09-23T07:48:34;15.20;99.90
41664;DHT22;27353;50.906;7.248;2022-09-23T07:51:08;16.20;99.90
41664;DHT22;27353;50.906;7.248;2022-09-23T07:53:34;17.70;99.90
41664;DHT22;27353;50.906;7.248;2022-09-23T07:56:00;18.80;99.90
41664;DHT22;27353;50.906;7.248;2022-09-23T07:58:28;18.70;99.90
41664;DHT22;27353;50.906;7.248;2022-09-23T08:00:54;20.20;99.90
41664;DHT22;27353;50.906;7.248;2022-09-23T08:03:25;22.10;99.70
41664;DHT22;27353;50.906;7.248;2022-09-23T08:05:50;22.70;96.00
41664;DHT22;27353;50.906;7.248;2022-09-23T08:08:17;23.00;94.30
41664;DHT22;27353;50.906;7.248;2022-09-23T08:10:43;22.80;94.50
41664;DHT22;27353;50.906;7.248;2022-09-23T08:13:09;21.80;94.80
41664;DHT22;27353;50.906;7.248;2022-09-23T08:15:35;21.90;95.70
41664;DHT22;27353;50.906;7.248;2022-09-23T08:18:01;21.70;95.20
41664;DHT22;27353;50.906;7.248;2022-09-23T08:20:27;21.50;94.40
41664;DHT22;27353;50.906;7.248;2022-09-23T08:23:12;21.30;94.70
41664;DHT22;27353;50.906;7.248;2022-09-23T08:25:42;21.70;93.90
41664;DHT22;27353;50.906;7.248;2022-09-23T08:28:10;21.40;94.90
41664;DHT22;27353;50.906;7.248;2022-09-23T08:30:38;21.50;94.40
41664;DHT22;27353;50.906;7.248;2022-09-23T08:33:04;21.80;94.70
41664;DHT22;27353;50.906;7.248;2022-09-23T08:35:29;21.80;94.70
41664;DHT22;27353;50.906;7.248;2022-09-23T08:37:55;22.10;93.60
41664;DHT22;27353;50.906;7.248;2022-09-23T08:40:21;22.20;93.90
41664;DHT22;27353;50.906;7.248;2022-09-23T08:42:46;22.20;94.10
41664;DHT22;27353;50.906;7.248;2022-09-23T08:45:20;21.80;95.10
41664;DHT22;27353;50.906;7.248;2022-09-23T08:48:02;21.70;94.00
41664;DHT22;27353;50.906;7.248;2022-09-23T08:50:49;22.20;94.20
41664;DHT22;27353;50.906;7.248;2022-09-23T08:55:50;21.80;93.40
41664;DHT22;27353;50.906;7.248;2022-09-23T08:59:19;21.00;95.40
41664;DHT22;27353;50.906;7.248;2022-09-23T09:04:27;21.70;94.20
41664;DHT22;27353;50.906;7.248;2022-09-23T09:09:37;20.90;95.10
41664;DHT22;27353;50.906;7.248;2022-09-23T09:12:15;20.80;96.90
41664;DHT22;27353;50.906;7.248;2022-09-23T09:15:08;20.60;95.80
41664;DHT22;27353;50.906;7.248;2022-09-23T09:23:26;19.40;97.70
41664;DHT22;27353;50.906;7.248;2022-09-23T09:25:59;19.70;99.00
41664;DHT22;27353;50.906;7.248;2022-09-23T09:30:59;20.40;96.90
41664;DHT22;27353;50.906;7.248;2022-09-23T09:33:37;19.70;98.40
41664;DHT22;27353;50.906;7.248;2022-09-23T09:39:00;19.80;96.80
41664;DHT22;27353;50.906;7.248;2022-09-23T09:41:27;19.00;98.90
41664;DHT22;27353;50.906;7.248;2022-09-23T09:43:56;19.40;99.30
41664;DHT22;27353;50.906;7.248;2022-09-23T09:49:02;20.40;99.50
41664;DHT22;27353;50.906;7.248;2022-09-23T09:51:30;21.60;97.20
41664;DHT22;27353;50.906;7.248;2022-09-23T09:54:15;21.90;95.00
41664;DHT22;27353;50.906;7.248;2022-09-23T09:56:42;22.00;94.60
41664;DHT22;27353;50.906;7.248;2022-09-23T09:59:10;21.70;94.60
41664;DHT22;27353;50.906;7.248;2022-09-23T10:01:39;21.60;94.70
41664;DHT22;27353;50.906;7.248;2022-09-23T10:04:32;21.00;95.40
41664;DHT22;27353;50.906;7.248;2022-09-23T10:07:11;21.80;95.60
41664;DHT22;27353;50.906;7.248;2022-09-23T10:09:38;22.80;94.60
41664;DHT22;27353;50.906;7.248;2022-09-23T10:14:43;22.60;94.50
41664;DHT22;27353;50.906;7.248;2022-09-23T10:17:22;22.70;94.00
41664;DHT22;27353;50.906;7.248;2022-09-23T10:20:02;22.90;94.80
41664;DHT22;27353;50.906;7.248;2022-09-23T10:22:34;23.70;93.20
41664;DHT22;27353;50.906;7.248;2022-09-23T10:25:07;24.50;91.60
41664;DHT22;27353;50.906;7.248;2022-09-23T10:27:34;23.90;91.40
41664;DHT22;27353;50.906;7.248;2022-09-23T10:30:08;23.40;90.50
41664;DHT22;27353;50.906;7.248;2022-09-23T10:32:46;23.00;91.70
41664;DHT22;27353;50.906;7.248;2022-09-23T10:35:13;22.60;92.70
41664;DHT22;27353;50.906;7.248;2022-09-23T10:37:59;22.60;92.30
41664;DHT22;27353;50.906;7.248;2022-09-23T10:40:42;23.10;93.20
41664;DHT22;27353;50.906;7.248;2022-09-23T10:46:19;24.40;89.50
41664;DHT22;27353;50.906;7.248;2022-09-23T10:58:06;25.10;86.50
41664;DHT22;27353;50.906;7.248;2022-09-23T11:00:46;26.20;86.60
41664;DHT22;27353;50.906;7.248;2022-09-23T11:03:33;26.80;82.90
41664;DHT22;27353;50.906;7.248;2022-09-23T11:20:53;27.00;78.70
41664;DHT22;27353;50.906;7.248;2022-09-23T11:23:40;26.80;77.00
41664;DHT22;27353;50.906;7.248;2022-09-23T11:28:48;27.20;79.80
41664;DHT22;27353;50.906;7.248;2022-09-23T11:36:45;25.90;78.50
41664;DHT22;27353;50.906;7.248;2022-09-23T11:39:27;25.70;77.30
41664;DHT22;27353;50.906;7.248;2022-09-23T11:41:55;25.70;78.60
41664;DHT22;27353;50.906;7.248;2022-09-23T11:44:57;25.60;79.60
41664;DHT22;27353;50.906;7.248;2022-09-23T11:47:30;25.30;79.30
41664;DHT22;27353;50.906;7.248;2022-09-23T11:50:01;24.90;82.40
41664;DHT22;27353;50.906;7.248;2022-09-23T11:52:38;25.10;79.60
41664;DHT22;27353;50.906;7.248;2022-09-23T11:57:50;25.40;79.90
41664;DHT22;27353;50.906;7.248;2022-09-23T12:00:22;25.50;77.20
41664;DHT22;27353;50.906;7.248;2022-09-23T12:02:53;25.10;81.00
41664;DHT22;27353;50.906;7.248;2022-09-23T12:05:25;24.70;77.60
41664;DHT22;27353;50.906;7.248;2022-09-23T12:24:45;21.90;86.50
41664;DHT22;27353;50.906;7.248;2022-09-23T12:27:19;21.80;85.50
41664;DHT22;27353;50.906;7.248;2022-09-23T12:29:53;21.70;85.50
41664;DHT22;27353;50.906;7.248;2022-09-23T12:32:20;21.50;91.70
41664;DHT22;27353;50.906;7.248;2022-09-23T12:34:47;21.30;90.00
41664;DHT22;27353;50.906;7.248;2022-09-23T12:37:36;21.20;87.10
41664;DHT22;27353;50.906;7.248;2022-09-23T12:40:18;21.40;89.30
41664;DHT22;27353;50.906;7.248;2022-09-23T12:42:45;21.30;89.80
41664;DHT22;27353;50.906;7.248;2022-09-23T12:56:01;21.90;86.50
41664;DHT22;27353;50.906;7.248;2022-09-23T13:01:39;21.80;90.60
41664;DHT22;27353;50.906;7.248;2022-09-23T13:04:05;21.80;86.10
41664;DHT22;27353;50.906;7.248;2022-09-23T13:07:04;22.00;88.90
41664;DHT22;27353;50.906;7.248;2022-09-23T13:09:36;21.80;84.90
41664;DHT22;27353;50.906;7.248;2022-09-23T13:12:07;21.70;86.40
41664;DHT22;27353;50.906;7.248;2022-09-23T13:14:42;21.60;85.60
41664;DHT22;27353;50.906;7.248;2022-09-23T13:20:05;21.00;85.70
41664;DHT22;27353;50.906;7.248;2022-09-23T13:25:21;20.90;91.00
41664;DHT22;27353;50.906;7.248;2022-09-23T13:27:50;20.70;94.20
41664;DHT22;27353;50.906;7.248;2022-09-23T13:30:19;20.70;90.10
41664;DHT22;27353;50.906;7.248;2022-09-23T13:35:35;20.50;95.50
41664;DHT22;27353;50.906;7.248;2022-09-23T13:38:19;20.50;92.10
41664;DHT22;27353;50.906;7.248;2022-09-23T13:40:46;20.20;95.80
41664;DHT22;27353;50.906;7.248;2022-09-23T13:43:22;20.20;90.80
41664;DHT22;27353;50.906;7.248;2022-09-23T13:45:49;20.20;90.20
41664;DHT22;27353;50.906;7.248;2022-09-23T13:48:15;20.20;90.20
41664;DHT22;27353;50.906;7.248;2022-09-23T13:50:48;20.10;91.40
41664;DHT22;27353;50.906;7.248;2022-09-23T13:53:26;20.00;96.70
41664;DHT22;27353;50.906;7.248;2022-09-23T13:56:01;19.90;96.10
41664;DHT22;27353;50.906;7.248;2022-09-23T13:58:28;20.00;96.20
41664;DHT22;27353;50.906;7.248;2022-09-23T14:00:54;19.90;95.70
41664;DHT22;27353;50.906;7.248;2022-09-23T14:05:53;19.80;93.00
41664;DHT22;27353;50.906;7.248;2022-09-23T14:08:20;19.70;96.80
41664;DHT22;27353;50.906;7.248;2022-09-23T14:10:46;19.50;92.70
41664;DHT22;27353;50.906;7.248;2022-09-23T14:13:27;19.70;95.50
41664;DHT22;27353;50.906;7.248;2022-09-23T14:15:55;19.50;91.70
41664;DHT22;27353;50.906;7.248;2022-09-23T14:20:56;19.60;96.80
41664;DHT22;27353;50.906;7.248;2022-09-23T14:23:22;19.50;95.50
41664;DHT22;27353;50.906;7.248;2022-09-23T14:25:49;19.50;97.90
41664;DHT22;27353;50.906;7.248;2022-09-23T14:28:20;19.50;97.20
41664;DHT22;27353;50.906;7.248;2022-09-23T14:30:49;19.40;97.50
41664;DHT22;27353;50.906;7.248;2022-09-23T14:33:23;19.30;98.20
41664;DHT22;27353;50.906;7.248;2022-09-23T14:35:53;19.30;99.20
41664;DHT22;27353;50.906;7.248;2022-09-23T14:38:25;19.30;99.30
41664;DHT22;27353;50.906;7.248;2022-09-23T14:41:23;19.20;99.90
41664;DHT22;27353;50.906;7.248;2022-09-23T14:44:00;19.30;98.50
41664;DHT22;27353;50.906;7.248;2022-09-23T14:46:36;19.10;98.90
41664;DHT22;27353;50.906;7.248;2022-09-23T14:49:06;19.00;99.90
41664;DHT22;27353;50.906;7.248;2022-09-23T14:51:56;19.00;99.90
41664;DHT22;27353;50.906;7.248;2022-09-23T14:54:42;18.90;99.90
41664;DHT22;27353;50.906;7.248;2022-09-23T14:57:25;18.90;99.90
41664;DHT22;27353;50.906;7.248;2022-09-23T15:00:06;18.90;99.90
41664;DHT22;27353;50.906;7.248;2022-09-23T15:02:35;18.90;99.90
41664;DHT22;27353;50.906;7.248;2022-09-23T15:07:40;18.80;99.90
41664;DHT22;27353;50.906;7.248;2022-09-23T15:10:11;18.80;99.90
41664;DHT22;27353;50.906;7.248;2022-09-23T15:12:39;18.70;99.90
41664;DHT22;27353;50.906;7.248;2022-09-23T15:15:11;18.60;99.90
41664;DHT22;27353;50.906;7.248;2022-09-23T15:17:37;18.60;99.90
41664;DHT22;27353;50.906;7.248;2022-09-23T15:20:33;18.50;99.90
41664;DHT22;27353;50.906;7.248;2022-09-23T15:22:58;18.50;99.90
41664;DHT22;27353;50.906;7.248;2022-09-23T15:25:34;18.50;99.90
41664;DHT22;27353;50.906;7.248;2022-09-23T15:28:16;18.40;99.90
41664;DHT22;27353;50.906;7.248;2022-09-23T15:30:43;18.30;99.90
41664;DHT22;27353;50.906;7.248;2022-09-23T15:33:12;18.30;99.90
41664;DHT22;27353;50.906;7.248;2022-09-23T15:35:43;18.20;99.90
41664;DHT22;27353;50.906;7.248;2022-09-23T15:38:10;18.10;99.90
41664;DHT22;27353;50.906;7.248;2022-09-23T15:40:36;18.00;99.90
41664;DHT22;27353;50.906;7.248;2022-09-23T15:43:19;17.90;99.90
41664;DHT22;27353;50.906;7.248;2022-09-23T15:45:54;17.80;99.90
41664;DHT22;27353;50.906;7.248;2022-09-23T15:48:42;17.70;99.90
41664;DHT22;27353;50.906;7.248;2022-09-23T15:51:13;17.70;99.90
41664;DHT22;27353;50.906;7.248;2022-09-23T15:53:38;17.60;99.90
41664;DHT22;27353;50.906;7.248;2022-09-23T15:56:04;17.60;99.90
41664;DHT22;27353;50.906;7.248;2022-09-23T15:58:31;17.50;99.90
41664;DHT22;27353;50.906;7.248;2022-09-23T16:00:57;17.40;99.90
41664;DHT22;27353;50.906;7.248;2022-09-23T16:03:24;17.30;99.90
41664;DHT22;27353;50.906;7.248;2022-09-23T16:05:53;17.30;99.90
41664;DHT22;27353;50.906;7.248;2022-09-23T16:08:20;17.20;99.90
41664;DHT22;27353;50.906;7.248;2022-09-23T16:10:47;17.10;99.90
41664;DHT22;27353;50.906;7.248;2022-09-23T16:13:13;17.00;99.90
41664;DHT22;27353;50.906;7.248;2022-09-23T16:15:39;16.90;99.90
41664;DHT22;27353;50.906;7.248;2022-09-23T16:18:05;16.80;99.90
41664;DHT22;27353;50.906;7.248;2022-09-23T16:20:43;16.70;99.90
41664;DHT22;27353;50.906;7.248;2022-09-23T16:23:26;16.70;99.90
41664;DHT22;27353;50.906;7.248;2022-09-23T16:26:19;16.70;99.90
41664;DHT22;27353;50.906;7.248;2022-09-23T16:28:47;16.60;99.90
41664;DHT22;27353;50.906;7.248;2022-09-23T16:31:14;16.50;99.90
41664;DHT22;27353;50.906;7.248;2022-09-23T16:33:43;16.40;99.90
41664;DHT22;27353;50.906;7.248;2022-09-23T16:36:28;16.40;99.90
41664;DHT22;27353;50.906;7.248;2022-09-23T16:38:56;16.30;99.90
41664;DHT22;27353;50.906;7.248;2022-09-23T16:41:23;16.20;99.90
41664;DHT22;27353;50.906;7.248;2022-09-23T16:43:49;16.20;99.90
41664;DHT22;27353;50.906;7.248;2022-09-23T16:46:16;16.30;99.90
41664;DHT22;27353;50.906;7.248;2022-09-23T16:48:42;16.30;99.90
41664;DHT22;27353;50.906;7.248;2022-09-23T16:51:19;16.30;99.90
41664;DHT22;27353;50.906;7.248;2022-09-23T16:53:46;16.10;99.90
41664;DHT22;27353;50.906;7.248;2022-09-23T16:56:14;16.00;99.90
41664;DHT22;27353;50.906;7.248;2022-09-23T16:58:41;15.90;99.90
41664;DHT22;27353;50.906;7.248;2022-09-23T17:01:13;15.90;99.90
41664;DHT22;27353;50.906;7.248;2022-09-23T17:03:58;15.80;99.90
41664;DHT22;27353;50.906;7.248;2022-09-23T17:06:23;15.80;99.90
41664;DHT22;27353;50.906;7.248;2022-09-23T17:08:52;15.70;99.90
41664;DHT22;27353;50.906;7.248;2022-09-23T17:11:19;15.60;99.90
41664;DHT22;27353;50.906;7.248;2022-09-23T17:13:45;15.60;99.90
41664;DHT22;27353;50.906;7.248;2022-09-23T17:16:21;15.50;99.90
41664;DHT22;27353;50.906;7.248;2022-09-23T17:18:47;15.50;99.90
41664;DHT22;27353;50.906;7.248;2022-09-23T17:21:12;15.50;99.90
41664;DHT22;27353;50.906;7.248;2022-09-23T17:23:38;15.50;99.90
41664;DHT22;27353;50.906;7.248;2022-09-23T17:26:04;15.40;99.90
41664;DHT22;27353;50.906;7.248;2022-09-23T17:28:30;15.40;99.90
41664;DHT22;27353;50.906;7.248;2022-09-23T17:30:57;15.40;99.90
41664;DHT22;27353;50.906;7.248;2022-09-23T17:33:25;15.30;99.90
41664;DHT22;27353;50.906;7.248;2022-09-23T17:35:50;15.30;99.90
41664;DHT22;27353;50.906;7.248;2022-09-23T17:38:16;15.20;99.90
41664;DHT22;27353;50.906;7.248;2022-09-23T17:40:51;15.20;99.90
41664;DHT22;27353;50.906;7.248;2022-09-23T17:43:18;15.20;99.90
41664;DHT22;27353;50.906;7.248;2022-09-23T17:45:51;15.20;99.90
41664;DHT22;27353;50.906;7.248;2022-09-23T17:48:17;15.20;99.90
41664;DHT22;27353;50.906;7.248;2022-09-23T17:50:55;15.20;99.90
41664;DHT22;27353;50.906;7.248;2022-09-23T17:53:22;15.10;99.90
41664;DHT22;27353;50.906;7.248;2022-09-23T17:55:59;15.10;99.90
41664;DHT22;27353;50.906;7.248;2022-09-23T17:58:29;15.10;99.90
41664;DHT22;27353;50.906;7.248;2022-09-23T18:00:55;15.00;99.90
41664;DHT22;27353;50.906;7.248;2022-09-23T18:03:23;15.00;99.90
41664;DHT22;27353;50.906;7.248;2022-09-23T18:05:49;14.90;99.90
41664;DHT22;27353;50.906;7.248;2022-09-23T18:08:14;14.80;99.90
41664;DHT22;27353;50.906;7.248;2022-09-23T18:10:40;14.80;99.90
41664;DHT22;27353;50.906;7.248;2022-09-23T18:13:06;14.70;99.90
41664;DHT22;27353;50.906;7.248;2022-09-23T18:15:34;14.70;99.90
41664;DHT22;27353;50.906;7.248;2022-09-23T18:18:01;14.70;99.90
41664;DHT22;27353;50.906;7.248;2022-09-23T18:20:26;14.70;99.90